createdAt,value
2019-04-22T00:10:12.045Z,13.78
2019-04-22T00:20:22.956Z,10.40
2019-04-22T00:30:40.817Z,13.13
2019-04-22T00:40:45.044Z,12.00
2019-04-22T00:51:05.784Z,8.35
2019-04-22T01:01:12.147Z,11.60
2019-04-22T01:11:26.629Z,11.43
2019-04-22T01:31:18.158Z,10.98
2019-04-22T01:41:58.085Z,11.75
2019-04-22T01:52:13.677Z,10.43
2019-04-22T02:02:02.991Z,10.72
2019-04-22T02:12:17.698Z,11.35
2019-04-22T02:22:38.317Z,11.20
2019-04-22T02:42:43.479Z,10.53
2019-04-22T02:52:50.407Z,11.40
2019-04-22T03:13:21.342Z,11.95
2019-04-22T03:34:17.755Z,10.65
2019-04-22T03:54:02.827Z,15.18
2019-04-22T04:04:09.023Z,12.68
2019-04-22T04:24:32.866Z,8.95
2019-04-22T04:44:48.803Z,8.68
2019-04-22T04:54:56.982Z,9.23
2019-04-22T05:15:04.215Z,8.08
2019-04-22T05:25:06.000Z,6.17
2019-04-22T05:35:25.057Z,9.63
2019-04-22T05:45:21.628Z,11.30
2019-04-22T06:05:45.317Z,10.10
2019-04-22T06:15:44.138Z,11.33
2019-04-22T06:46:17.206Z,6.17
2019-04-22T06:56:22.357Z,5.83
2019-04-22T07:06:35.450Z,7.05
2019-04-22T07:16:43.583Z,7.55
2019-04-22T07:26:54.386Z,7.62
2019-04-22T07:37:10.996Z,6.45
2019-04-22T07:47:13.925Z,5.53
2019-04-22T07:57:20.187Z,5.60
2019-04-22T08:07:33.139Z,5.50
2019-04-22T08:40:07.794Z,2.10
2019-04-22T09:10:43.575Z,1.87
2019-04-22T09:25:48.464Z,2.20
2019-04-22T09:41:18.791Z,1.65
2019-04-22T09:56:31.587Z,1.67
2019-04-22T10:11:47.078Z,2.10
2019-04-22T10:26:54.919Z,2.02
2019-04-22T10:41:38.959Z,1.72
2019-04-22T10:56:48.682Z,1.52
2019-04-22T11:12:04.528Z,1.85
2019-04-22T11:27:07.014Z,1.75
2019-04-22T11:42:16.332Z,2.27
2019-04-22T11:57:25.377Z,1.42
2019-04-22T12:12:51.991Z,2.50
2019-04-22T12:27:59.260Z,1.80
2019-04-22T13:00:38.426Z,2.30
2019-04-22T13:15:46.804Z,1.20
2019-04-22T13:46:17.794Z,1.85
2019-04-22T14:01:26.449Z,1.65
2019-04-22T14:16:33.427Z,1.42
2019-04-22T14:31:40.675Z,1.55
2019-04-22T14:47:15.672Z,1.20
2019-04-22T15:01:56.014Z,1.75
2019-04-22T15:17:06.885Z,1.98
2019-04-22T15:32:15.616Z,2.72
2019-04-22T15:47:22.933Z,3.15
2019-04-22T16:02:29.840Z,3.72
2019-04-22T16:17:37.855Z,4.92
2019-04-22T16:32:45.453Z,3.33
2019-04-22T16:47:53.731Z,5.30
2019-04-22T17:03:13.172Z,5.83
2019-04-22T17:18:21.543Z,5.53
2019-04-22T17:33:28.880Z,6.53
2019-04-22T17:48:57.813Z,6.37
2019-04-22T18:03:52.930Z,6.72
2019-04-22T18:19:15.425Z,6.95
2019-04-22T18:34:16.910Z,7.95
2019-04-22T19:04:54.956Z,7.95
2019-04-22T19:20:16.974Z,9.28
2019-04-22T19:35:17.398Z,7.33
2019-04-22T19:50:39.027Z,4.15
2019-04-22T20:05:43.558Z,3.25
2019-04-22T20:20:53.973Z,2.72
2019-04-22T20:35:58.330Z,9.98
2019-04-22T20:51:10.990Z,4.47
2019-04-22T21:06:14.958Z,13.22
2019-04-22T21:21:31.792Z,7.45
2019-04-22T21:36:56.289Z,5.33
2019-04-22T21:51:49.580Z,7.85
2019-04-22T22:06:45.060Z,3.50
2019-04-22T22:22:40.168Z,5.17
2019-04-22T22:37:06.425Z,3.40
2019-04-22T22:52:45.337Z,2.83
2019-04-22T23:07:38.990Z,3.52
2019-04-22T23:22:30.252Z,2.80
2019-04-22T23:37:47.591Z,2.90
2019-04-22T23:52:54.703Z,3.08
